sensor_id;sensor_type;location;lat;lon;timestamp;pressure;altitude;pressure_sealevel;temperature;humidity
5753;BME280;2901;42.140;24.760;2023-11-21T00:01:26;99285.94;;;10.57;74.53
5753;BME280;2901;42.140;24.760;2023-11-21T00:03:51;99292.88;;;10.55;74.29
5753;BME280;2901;42.140;24.760;2023-11-21T00:06:19;99297.16;;;10.58;74.80
5753;BME280;2901;42.140;24.760;2023-11-21T00:08:45;99301.50;;;10.56;75.35
5753;BME280;2901;42.140;24.760;2023-11-21T00:11:11;99297.22;;;10.53;75.69
5753;BME280;2901;42.140;24.760;2023-11-21T00:13:37;99297.25;;;10.49;76.01
5753;BME280;2901;42.140;24.760;2023-11-21T00:16:03;99289.47;;;10.49;76.37
5753;BME280;2901;42.140;24.760;2023-11-21T00:18:29;99290.31;;;10.54;75.89
5753;BME280;2901;42.140;24.760;2023-11-21T00:20:55;99305.00;;;10.50;75.92
5753;BME280;2901;42.140;24.760;2023-11-21T00:23:20;99298.97;;;10.50;76.40
5753;BME280;2901;42.140;24.760;2023-11-21T00:25:45;99295.47;;;10.51;76.71
5753;BME280;2901;42.140;24.760;2023-11-21T00:28:11;99294.66;;;10.49;76.92
5753;BME280;2901;42.140;24.760;2023-11-21T00:30:36;99299.84;;;10.50;77.32
5753;BME280;2901;42.140;24.760;2023-11-21T00:33:02;99296.34;;;10.51;77.96
5753;BME280;2901;42.140;24.760;2023-11-21T00:35:27;99282.53;;;10.51;78.02
5753;BME280;2901;42.140;24.760;2023-11-21T00:37:52;99282.66;;;10.38;78.71
5753;BME280;2901;42.140;24.760;2023-11-21T00:40:18;99288.00;;;10.22;79.38
5753;BME280;2901;42.140;24.760;2023-11-21T00:42:47;99276.84;;;10.15;80.35
5753;BME280;2901;42.140;24.760;2023-11-21T00:45:12;99286.28;;;10.18;79.97
5753;BME280;2901;42.140;24.760;2023-11-21T00:47:38;99282.88;;;10.11;80.84
5753;BME280;2901;42.140;24.760;2023-11-21T00:50:04;99290.66;;;10.08;81.12
5753;BME280;2901;42.140;24.760;2023-11-21T00:52:31;99295.03;;;10.00;81.47
5753;BME280;2901;42.140;24.760;2023-11-21T00:54:56;99298.56;;;9.90;83.12
5753;BME280;2901;42.140;24.760;2023-11-21T00:57:25;99284.00;;;9.77;83.65
5753;BME280;2901;42.140;24.760;2023-11-21T00:59:51;99292.66;;;9.71;84.41
5753;BME280;2901;42.140;24.760;2023-11-21T01:02:16;99293.53;;;9.69;84.80
5753;BME280;2901;42.140;24.760;2023-11-21T01:04:42;99296.16;;;9.63;85.27
5753;BME280;2901;42.140;24.760;2023-11-21T01:07:08;99284.09;;;9.59;85.62
5753;BME280;2901;42.140;24.760;2023-11-21T01:09:33;99285.00;;;9.55;86.12
5753;BME280;2901;42.140;24.760;2023-11-21T01:11:59;99277.34;;;9.41;86.74
5753;BME280;2901;42.140;24.760;2023-11-21T01:14:25;99287.69;;;9.32;87.70
5753;BME280;2901;42.140;24.760;2023-11-21T01:16:52;99289.50;;;9.21;88.16
5753;BME280;2901;42.140;24.760;2023-11-21T01:19:17;99294.66;;;9.16;88.59
5753;BME280;2901;42.140;24.760;2023-11-21T01:21:42;99289.47;;;9.19;88.87
5753;BME280;2901;42.140;24.760;2023-11-21T01:24:08;99282.59;;;9.24;88.73
5753;BME280;2901;42.140;24.760;2023-11-21T01:26:33;99285.16;;;9.24;89.01
5753;BME280;2901;42.140;24.760;2023-11-21T01:28:59;99281.72;;;9.28;88.99
5753;BME280;2901;42.140;24.760;2023-11-21T01:31:24;99280.81;;;9.29;88.65
5753;BME280;2901;42.140;24.760;2023-11-21T01:33:54;99295.50;;;9.24;89.33
5753;BME280;2901;42.140;24.760;2023-11-21T01:36:20;99286.03;;;9.20;89.41
5753;BME280;2901;42.140;24.760;2023-11-21T01:38:46;99292.94;;;9.20;89.86
5753;BME280;2901;42.140;24.760;2023-11-21T01:41:13;99284.34;;;9.10;90.05
5753;BME280;2901;42.140;24.760;2023-11-21T01:43:39;99272.34;;;9.00;90.38
5753;BME280;2901;42.140;24.760;2023-11-21T01:46:05;99288.72;;;9.02;90.35
5753;BME280;2901;42.140;24.760;2023-11-21T01:48:31;99282.69;;;8.94;90.82
5753;BME280;2901;42.140;24.760;2023-11-21T01:50:57;99277.56;;;8.85;91.24
5753;BME280;2901;42.140;24.760;2023-11-21T01:53:24;99275.00;;;8.80;91.76
5753;BME280;2901;42.140;24.760;2023-11-21T01:55:51;99277.59;;;8.79;91.48
5753;BME280;2901;42.140;24.760;2023-11-21T01:58:17;99280.16;;;8.73;91.81
5753;BME280;2901;42.140;24.760;2023-11-21T02:00:43;99287.06;;;8.71;91.85
5753;BME280;2901;42.140;24.760;2023-11-21T02:03:08;99283.63;;;8.67;91.33
5753;BME280;2901;42.140;24.760;2023-11-21T02:05:35;99276.81;;;8.53;91.78
5753;BME280;2901;42.140;24.760;2023-11-21T02:08:01;99271.63;;;8.50;91.79
5753;BME280;2901;42.140;24.760;2023-11-21T02:10:27;99274.25;;;8.39;93.13
5753;BME280;2901;42.140;24.760;2023-11-21T02:12:54;99273.41;;;8.32;92.86
5753;BME280;2901;42.140;24.760;2023-11-21T02:15:21;99275.94;;;8.26;93.09
5753;BME280;2901;42.140;24.760;2023-11-21T02:17:50;99271.66;;;8.19;93.63
5753;BME280;2901;42.140;24.760;2023-11-21T02:20:17;99276.81;;;7.95;94.59
5753;BME280;2901;42.140;24.760;2023-11-21T02:22:44;99276.78;;;7.94;94.92
5753;BME280;2901;42.140;24.760;2023-11-21T02:25:10;99286.22;;;7.84;94.60
5753;BME280;2901;42.140;24.760;2023-11-21T02:27:36;99283.66;;;7.84;95.01
5753;BME280;2901;42.140;24.760;2023-11-21T02:30:03;99279.38;;;7.92;94.59
5753;BME280;2901;42.140;24.760;2023-11-21T02:32:30;99283.69;;;7.99;94.65
5753;BME280;2901;42.140;24.760;2023-11-21T02:34:56;99290.56;;;8.03;94.06
5753;BME280;2901;42.140;24.760;2023-11-21T02:37:26;99276.81;;;7.98;95.33
5753;BME280;2901;42.140;24.760;2023-11-21T02:39:51;99277.66;;;7.94;94.54
5753;BME280;2901;42.140;24.760;2023-11-21T02:42:18;99275.09;;;7.87;94.20
5753;BME280;2901;42.140;24.760;2023-11-21T02:44:43;99275.94;;;7.76;94.44
5753;BME280;2901;42.140;24.760;2023-11-21T02:47:09;99275.06;;;7.76;95.35
5753;BME280;2901;42.140;24.760;2023-11-21T02:49:34;99281.94;;;7.66;95.50
5753;BME280;2901;42.140;24.760;2023-11-21T02:52:01;99289.66;;;7.62;96.19
5753;BME280;2901;42.140;24.760;2023-11-21T02:54:26;99276.75;;;7.53;96.99
5753;BME280;2901;42.140;24.760;2023-11-21T02:56:52;99287.91;;;7.58;96.60
5753;BME280;2901;42.140;24.760;2023-11-21T02:59:18;99286.22;;;7.64;96.58
5753;BME280;2901;42.140;24.760;2023-11-21T03:01:45;99290.53;;;7.64;96.09
5753;BME280;2901;42.140;24.760;2023-11-21T03:04:11;99284.50;;;7.66;96.40
5753;BME280;2901;42.140;24.760;2023-11-21T03:06:44;99288.81;;;7.76;94.86
5753;BME280;2901;42.140;24.760;2023-11-21T03:09:10;99291.41;;;7.82;94.49
5753;BME280;2901;42.140;24.760;2023-11-21T03:11:38;99294.84;;;7.86;94.53
5753;BME280;2901;42.140;24.760;2023-11-21T03:14:03;99288.81;;;7.87;94.71
5753;BME280;2901;42.140;24.760;2023-11-21T03:16:29;99292.28;;;7.92;94.51
5753;BME280;2901;42.140;24.760;2023-11-21T03:18:54;99291.41;;;7.90;94.15
5753;BME280;2901;42.140;24.760;2023-11-21T03:21:20;99285.38;;;7.88;93.96
5753;BME280;2901;42.140;24.760;2023-11-21T03:23:45;99284.53;;;7.89;94.84
5753;BME280;2901;42.140;24.760;2023-11-21T03:26:13;99273.38;;;7.73;95.19
5753;BME280;2901;42.140;24.760;2023-11-21T03:28:39;99279.38;;;7.86;94.58
5753;BME280;2901;42.140;24.760;2023-11-21T03:31:04;99278.53;;;7.89;94.19
5753;BME280;2901;42.140;24.760;2023-11-21T03:33:31;99282.81;;;7.90;93.29
5753;BME280;2901;42.140;24.760;2023-11-21T03:35:57;99282.81;;;7.90;94.07
5753;BME280;2901;42.140;24.760;2023-11-21T03:38:23;99292.28;;;7.95;93.34
5753;BME280;2901;42.140;24.760;2023-11-21T03:40:48;99287.97;;;7.97;93.68
5753;BME280;2901;42.140;24.760;2023-11-21T03:43:14;99289.69;;;7.98;93.94
5753;BME280;2901;42.140;24.760;2023-11-21T03:45:39;99283.66;;;7.95;94.00
5753;BME280;2901;42.140;24.760;2023-11-21T03:48:06;99282.81;;;7.91;94.51
5753;BME280;2901;42.140;24.760;2023-11-21T03:50:31;99292.28;;;7.95;95.71
5753;BME280;2901;42.140;24.760;2023-11-21T03:52:57;99281.97;;;7.98;95.66
5753;BME280;2901;42.140;24.760;2023-11-21T03:55:22;99287.13;;;8.00;95.13
5753;BME280;2901;42.140;24.760;2023-11-21T03:57:50;99285.41;;;8.05;95.63
5753;BME280;2901;42.140;24.760;2023-11-21T04:00:16;99294.84;;;8.01;95.18
5753;BME280;2901;42.140;24.760;2023-11-21T04:02:42;99299.13;;;7.98;94.46
5753;BME280;2901;42.140;24.760;2023-11-21T04:05:08;99304.31;;;7.96;95.03
5753;BME280;2901;42.140;24.760;2023-11-21T04:07:34;99296.56;;;7.93;95.31
5753;BME280;2901;42.140;24.760;2023-11-21T04:10:00;99305.16;;;7.95;95.55
5753;BME280;2901;42.140;24.760;2023-11-21T04:12:25;99297.44;;;7.98;95.66
5753;BME280;2901;42.140;24.760;2023-11-21T04:14:50;99294.84;;;7.98;95.39
5753;BME280;2901;42.140;24.760;2023-11-21T04:17:18;99299.16;;;7.99;95.69
5753;BME280;2901;42.140;24.760;2023-11-21T04:19:44;99301.72;;;7.99;95.57
5753;BME280;2901;42.140;24.760;2023-11-21T04:22:09;99299.13;;;7.86;96.87
5753;BME280;2901;42.140;24.760;2023-11-21T04:24:35;99298.28;;;7.76;96.25
5753;BME280;2901;42.140;24.760;2023-11-21T04:27:00;99288.81;;;7.70;95.99
5753;BME280;2901;42.140;24.760;2023-11-21T04:29:26;99308.56;;;7.67;96.00
5753;BME280;2901;42.140;24.760;2023-11-21T04:31:51;99314.56;;;7.64;96.71
5753;BME280;2901;42.140;24.760;2023-11-21T04:34:16;99315.44;;;7.69;96.10
5753;BME280;2901;42.140;24.760;2023-11-21T04:36:42;99312.84;;;7.66;96.91
5753;BME280;2901;42.140;24.760;2023-11-21T04:39:08;99305.97;;;7.59;96.53
5753;BME280;2901;42.140;24.760;2023-11-21T04:41:34;99305.94;;;7.50;97.29
5753;BME280;2901;42.140;24.760;2023-11-21T04:43:59;99310.22;;;7.44;97.86
5753;BME280;2901;42.140;24.760;2023-11-21T04:46:27;99311.13;;;7.53;97.73
5753;BME280;2901;42.140;24.760;2023-11-21T04:48:53;99297.38;;;7.60;98.43
5753;BME280;2901;42.140;24.760;2023-11-21T04:51:18;99308.53;;;7.58;97.89
5753;BME280;2901;42.140;24.760;2023-11-21T04:53:43;99309.38;;;7.55;98.35
5753;BME280;2901;42.140;24.760;2023-11-21T04:56:09;99311.97;;;7.58;97.95
5753;BME280;2901;42.140;24.760;2023-11-21T04:58:34;99314.56;;;7.67;98.25
5753;BME280;2901;42.140;24.760;2023-11-21T05:01:00;99311.13;;;7.71;97.12
5753;BME280;2901;42.140;24.760;2023-11-21T05:03:26;99309.41;;;7.64;97.55
5753;BME280;2901;42.140;24.760;2023-11-21T05:05:51;99298.22;;;7.58;97.91
5753;BME280;2901;42.140;24.760;2023-11-21T05:08:16;99291.38;;;7.57;98.39
5753;BME280;2901;42.140;24.760;2023-11-21T05:10:42;99294.78;;;7.54;99.02
5753;BME280;2901;42.140;24.760;2023-11-21T05:13:07;99295.66;;;7.53;98.23
5753;BME280;2901;42.140;24.760;2023-11-21T05:15:36;99310.28;;;7.66;98.22
5753;BME280;2901;42.140;24.760;2023-11-21T05:18:01;99323.16;;;7.66;98.81
5753;BME280;2901;42.140;24.760;2023-11-21T05:20:27;99313.69;;;7.62;98.20
5753;BME280;2901;42.140;24.760;2023-11-21T05:22:53;99314.56;;;7.69;98.37
5753;BME280;2901;42.140;24.760;2023-11-21T05:25:18;99319.75;;;7.76;99.31
5753;BME280;2901;42.140;24.760;2023-11-21T05:27:47;99318.88;;;7.74;99.19
5753;BME280;2901;42.140;24.760;2023-11-21T05:30:13;99321.47;;;7.76;99.54
5753;BME280;2901;42.140;24.760;2023-11-21T05:32:39;99319.72;;;7.69;98.86
5753;BME280;2901;42.140;24.760;2023-11-21T05:35:07;99307.72;;;7.66;98.52
5753;BME280;2901;42.140;24.760;2023-11-21T05:37:37;99317.13;;;7.64;98.37
5753;BME280;2901;42.140;24.760;2023-11-21T05:40:04;99325.75;;;7.63;97.86
5753;BME280;2901;42.140;24.760;2023-11-21T05:42:35;99318.84;;;7.59;97.91
5753;BME280;2901;42.140;24.760;2023-11-21T05:45:00;99310.25;;;7.59;97.82
5753;BME280;2901;42.140;24.760;2023-11-21T05:47:45;99324.00;;;7.61;98.31
5753;BME280;2901;42.140;24.760;2023-11-21T05:50:13;99328.31;;;7.66;97.48
5753;BME280;2901;42.140;24.760;2023-11-21T05:52:43;99323.16;;;7.63;97.82
5753;BME280;2901;42.140;24.760;2023-11-21T05:55:09;99316.31;;;7.67;97.75
5753;BME280;2901;42.140;24.760;2023-11-21T05:57:38;99310.28;;;7.72;97.92
5753;BME280;2901;42.140;24.760;2023-11-21T06:00:05;99322.34;;;7.82;97.97
5753;BME280;2901;42.140;24.760;2023-11-21T06:02:41;99325.75;;;7.84;97.50
5753;BME280;2901;42.140;24.760;2023-11-21T06:05:07;99323.22;;;7.95;97.75
5753;BME280;2901;42.140;24.760;2023-11-21T06:07:33;99322.34;;;8.08;97.02
5753;BME280;2901;42.140;24.760;2023-11-21T06:09:59;99329.25;;;8.20;97.00
5753;BME280;2901;42.140;24.760;2023-11-21T06:12:24;99341.31;;;8.28;96.22
5753;BME280;2901;42.140;24.760;2023-11-21T06:14:50;99330.13;;;8.39;95.25
5753;BME280;2901;42.140;24.760;2023-11-21T06:17:16;99329.25;;;8.52;95.35
5753;BME280;2901;42.140;24.760;2023-11-21T06:19:43;99327.50;;;8.63;95.02
5753;BME280;2901;42.140;24.760;2023-11-21T06:22:11;99329.25;;;8.68;94.23
5753;BME280;2901;42.140;24.760;2023-11-21T06:24:36;99336.06;;;8.83;93.38
5753;BME280;2901;42.140;24.760;2023-11-21T06:27:03;99340.38;;;8.98;92.95
5753;BME280;2901;42.140;24.760;2023-11-21T06:29:30;99335.16;;;9.11;92.14
5753;BME280;2901;42.140;24.760;2023-11-21T06:31:55;99332.56;;;9.17;91.40
5753;BME280;2901;42.140;24.760;2023-11-21T06:34:20;99333.38;;;9.24;91.60
5753;BME280;2901;42.140;24.760;2023-11-21T06:36:47;99330.81;;;9.24;91.51
5753;BME280;2901;42.140;24.760;2023-11-21T06:39:12;99330.78;;;9.27;90.13
5753;BME280;2901;42.140;24.760;2023-11-21T06:41:40;99325.66;;;9.13;90.21
5753;BME280;2901;42.140;24.760;2023-11-21T06:44:05;99336.03;;;9.03;89.91
5753;BME280;2901;42.140;24.760;2023-11-21T06:46:31;99333.47;;;8.98;90.75
5753;BME280;2901;42.140;24.760;2023-11-21T06:48:56;99336.94;;;8.91;90.70
5753;BME280;2901;42.140;24.760;2023-11-21T06:51:21;99324.88;;;8.95;91.09
5753;BME280;2901;42.140;24.760;2023-11-21T06:53:47;99322.31;;;8.87;91.10
5753;BME280;2901;42.140;24.760;2023-11-21T06:56:18;99322.34;;;8.78;91.09
5753;BME280;2901;42.140;24.760;2023-11-21T06:58:45;99332.66;;;8.78;91.26
5753;BME280;2901;42.140;24.760;2023-11-21T07:01:11;99330.94;;;8.77;91.58
5753;BME280;2901;42.140;24.760;2023-11-21T07:03:36;99330.94;;;8.80;91.99
5753;BME280;2901;42.140;24.760;2023-11-21T07:06:03;99334.34;;;8.91;91.56
5753;BME280;2901;42.140;24.760;2023-11-21T07:08:28;99336.03;;;9.07;91.05
5753;BME280;2901;42.140;24.760;2023-11-21T07:10:54;99339.44;;;9.14;89.70
5753;BME280;2901;42.140;24.760;2023-11-21T07:13:19;99344.63;;;9.11;89.17
5753;BME280;2901;42.140;24.760;2023-11-21T07:15:44;99348.03;;;9.20;89.52
5753;BME280;2901;42.140;24.760;2023-11-21T07:18:10;99344.50;;;9.39;88.67
5753;BME280;2901;42.140;24.760;2023-11-21T07:20:36;99339.28;;;9.49;87.82
5753;BME280;2901;42.140;24.760;2023-11-21T07:23:03;99342.69;;;9.63;86.48
5753;BME280;2901;42.140;24.760;2023-11-21T07:25:29;99344.38;;;9.70;86.11
5753;BME280;2901;42.140;24.760;2023-11-21T07:27:54;99342.63;;;9.69;86.03
5753;BME280;2901;42.140;24.760;2023-11-21T07:30:20;99340.88;;;9.77;86.21
5753;BME280;2901;42.140;24.760;2023-11-21T07:32:47;99327.94;;;9.80;86.16
5753;BME280;2901;42.140;24.760;2023-11-21T07:35:13;99327.91;;;9.81;86.27
5753;BME280;2901;42.140;24.760;2023-11-21T07:37:39;99332.19;;;9.85;86.46
5753;BME280;2901;42.140;24.760;2023-11-21T07:40:04;99341.59;;;10.00;85.92
5753;BME280;2901;42.140;24.760;2023-11-21T07:42:30;99336.38;;;10.14;85.30
5753;BME280;2901;42.140;24.760;2023-11-21T07:44:56;99339.66;;;10.31;84.94
5753;BME280;2901;42.140;24.760;2023-11-21T07:47:21;99342.09;;;10.48;83.70
5753;BME280;2901;42.140;24.760;2023-11-21T07:49:47;99357.53;;;10.63;81.50
5753;BME280;2901;42.140;24.760;2023-11-21T07:52:13;99351.50;;;10.58;81.06
5753;BME280;2901;42.140;24.760;2023-11-21T07:54:39;99354.13;;;10.56;80.67
5753;BME280;2901;42.140;24.760;2023-11-21T07:57:05;99355.81;;;10.62;80.90
5753;BME280;2901;42.140;24.760;2023-11-21T07:59:31;99350.53;;;10.71;80.69
5753;BME280;2901;42.140;24.760;2023-11-21T08:01:56;99349.50;;;10.88;79.94
5753;BME280;2901;42.140;24.760;2023-11-21T08:04:21;99338.97;;;11.05;79.05
5753;BME280;2901;42.140;24.760;2023-11-21T08:06:47;99343.88;;;11.26;78.18
5753;BME280;2901;42.140;24.760;2023-11-21T08:09:12;99346.47;;;11.29;76.60
5753;BME280;2901;42.140;24.760;2023-11-21T08:11:38;99340.34;;;11.35;76.16
5753;BME280;2901;42.140;24.760;2023-11-21T08:14:05;99345.66;;;11.26;76.61
5753;BME280;2901;42.140;24.760;2023-11-21T08:16:30;99342.13;;;11.30;77.02
5753;BME280;2901;42.140;24.760;2023-11-21T08:18:55;99346.34;;;11.38;75.90
5753;BME280;2901;42.140;24.760;2023-11-21T08:21:21;99347.19;;;11.42;75.28
5753;BME280;2901;42.140;24.760;2023-11-21T08:23:49;99347.13;;;11.43;73.60
5753;BME280;2901;42.140;24.760;2023-11-21T08:26:18;99337.66;;;11.41;73.92
5753;BME280;2901;42.140;24.760;2023-11-21T08:28:44;99317.66;;;11.51;74.60
5753;BME280;2901;42.140;24.760;2023-11-21T08:31:09;99337.22;;;11.76;72.68
5753;BME280;2901;42.140;24.760;2023-11-21T08:33:35;99335.09;;;12.05;73.31
5753;BME280;2901;42.140;24.760;2023-11-21T08:36:00;99336.63;;;12.18;70.01
5753;BME280;2901;42.140;24.760;2023-11-21T08:38:26;99323.09;;;12.50;70.88
5753;BME280;2901;42.140;24.760;2023-11-21T08:40:53;99322.34;;;12.91;68.12
5753;BME280;2901;42.140;24.760;2023-11-21T08:43:19;99321.69;;;13.27;67.47
5753;BME280;2901;42.140;24.760;2023-11-21T08:45:45;99311.66;;;13.50;64.90
5753;BME280;2901;42.140;24.760;2023-11-21T08:48:10;99315.69;;;13.64;63.17
5753;BME280;2901;42.140;24.760;2023-11-21T08:50:37;99314.81;;;13.65;63.39
5753;BME280;2901;42.140;24.760;2023-11-21T08:53:02;99309.41;;;13.74;63.31
5753;BME280;2901;42.140;24.760;2023-11-21T08:55:27;99298.84;;;13.80;62.23
5753;BME280;2901;42.140;24.760;2023-11-21T08:57:53;99291.13;;;13.77;62.54
5753;BME280;2901;42.140;24.760;2023-11-21T09:00:19;99288.41;;;13.83;62.55
5753;BME280;2901;42.140;24.760;2023-11-21T09:02:45;99289.78;;;13.97;62.51
5753;BME280;2901;42.140;24.760;2023-11-21T09:05:11;99284.22;;;14.13;61.12
5753;BME280;2901;42.140;24.760;2023-11-21T09:07:38;99284.78;;;14.25;61.40
5753;BME280;2901;42.140;24.760;2023-11-21T09:10:04;99279.34;;;14.33;61.07
5753;BME280;2901;42.140;24.760;2023-11-21T09:12:33;99273.88;;;14.45;59.81
5753;BME280;2901;42.140;24.760;2023-11-21T09:15:02;99272.19;;;14.42;59.40
5753;BME280;2901;42.140;24.760;2023-11-21T09:17:27;99261.50;;;14.53;59.49
5753;BME280;2901;42.140;24.760;2023-11-21T09:19:53;99260.00;;;14.77;59.21
5753;BME280;2901;42.140;24.760;2023-11-21T09:22:18;99251.50;;;15.01;57.71
5753;BME280;2901;42.140;24.760;2023-11-21T09:24:44;99249.66;;;15.04;56.84
5753;BME280;2901;42.140;24.760;2023-11-21T09:27:09;99247.66;;;15.14;56.81
5753;BME280;2901;42.140;24.760;2023-11-21T09:29:35;99243.63;;;15.32;56.29
5753;BME280;2901;42.140;24.760;2023-11-21T09:32:04;99238.09;;;15.42;56.32
5753;BME280;2901;42.140;24.760;2023-11-21T09:34:32;99239.56;;;15.52;55.01
5753;BME280;2901;42.140;24.760;2023-11-21T09:36:58;99229.75;;;15.61;55.18
5753;BME280;2901;42.140;24.760;2023-11-21T09:39:23;99232.97;;;15.69;54.68
5753;BME280;2901;42.140;24.760;2023-11-21T09:41:57;99227.53;;;15.75;54.00
5753;BME280;2901;42.140;24.760;2023-11-21T09:44:50;99235.25;;;15.79;54.62
5753;BME280;2901;42.140;24.760;2023-11-21T09:47:22;99230.97;;;15.77;52.81
5753;BME280;2901;42.140;24.760;2023-11-21T09:49:48;99228.97;;;15.85;53.39
5753;BME280;2901;42.140;24.760;2023-11-21T09:52:27;99227.97;;;15.89;52.61
5753;BME280;2901;42.140;24.760;2023-11-21T09:54:54;99221.94;;;15.87;52.72
5753;BME280;2901;42.140;24.760;2023-11-21T09:57:23;99214.06;;;15.88;52.79
5753;BME280;2901;42.140;24.760;2023-11-21T09:59:53;99209.72;;;15.87;52.86
5753;BME280;2901;42.140;24.760;2023-11-21T10:02:25;99209.00;;;15.84;52.22
5753;BME280;2901;42.140;24.760;2023-11-21T10:04:52;99203.47;;;15.93;52.09
5753;BME280;2901;42.140;24.760;2023-11-21T10:07:19;99198.72;;;16.04;51.24
5753;BME280;2901;42.140;24.760;2023-11-21T10:09:45;99196.41;;;16.21;50.59
5753;BME280;2901;42.140;24.760;2023-11-21T10:12:11;99185.16;;;16.44;49.89
5753;BME280;2901;42.140;24.760;2023-11-21T10:14:41;99154.03;;;16.63;49.76
5753;BME280;2901;42.140;24.760;2023-11-21T10:17:08;99165.63;;;16.55;48.71
5753;BME280;2901;42.140;24.760;2023-11-21T10:19:35;99155.47;;;16.46;49.76
5753;BME280;2901;42.140;24.760;2023-11-21T10:22:02;99161.06;;;16.60;49.38
5753;BME280;2901;42.140;24.760;2023-11-21T10:24:28;99157.44;;;16.88;49.07
5753;BME280;2901;42.140;24.760;2023-11-21T10:26:54;99168.13;;;17.05;48.23
5753;BME280;2901;42.140;24.760;2023-11-21T10:29:19;99164.53;;;17.07;47.30
5753;BME280;2901;42.140;24.760;2023-11-21T10:31:51;99155.97;;;16.81;47.37
5753;BME280;2901;42.140;24.760;2023-11-21T10:34:20;99152.44;;;17.05;47.95
5753;BME280;2901;42.140;24.760;2023-11-21T10:36:46;99150.97;;;16.98;47.36
5753;BME280;2901;42.140;24.760;2023-11-21T10:39:19;99152.38;;;17.06;47.26
5753;BME280;2901;42.140;24.760;2023-11-21T10:41:46;99146.50;;;17.00;47.33
5753;BME280;2901;42.140;24.760;2023-11-21T10:44:14;99135.19;;;16.99;47.12
5753;BME280;2901;42.140;24.760;2023-11-21T10:46:45;99144.38;;;16.88;47.59
5753;BME280;2901;42.140;24.760;2023-11-21T10:49:16;99142.00;;;16.82;47.22
5753;BME280;2901;42.140;24.760;2023-11-21T10:51:43;99146.38;;;16.81;48.20
5753;BME280;2901;42.140;24.760;2023-11-21T10:54:09;99134.53;;;16.71;48.01
5753;BME280;2901;42.140;24.760;2023-11-21T10:56:35;99129.31;;;16.71;47.25
5753;BME280;2901;42.140;24.760;2023-11-21T10:59:09;99128.72;;;16.63;47.95
5753;BME280;2901;42.140;24.760;2023-11-21T11:01:36;99130.88;;;16.52;47.86
5753;BME280;2901;42.140;24.760;2023-11-21T11:04:05;99127.63;;;16.45;48.33
5753;BME280;2901;42.140;24.760;2023-11-21T11:06:31;99126.53;;;16.51;48.16
5753;BME280;2901;42.140;24.760;2023-11-21T11:08:59;99120.88;;;16.40;47.49
5753;BME280;2901;42.140;24.760;2023-11-21T11:11:28;99108.97;;;16.56;48.22
5753;BME280;2901;42.140;24.760;2023-11-21T11:13:55;99114.63;;;16.67;48.73
5753;BME280;2901;42.140;24.760;2023-11-21T11:16:22;99112.53;;;16.77;47.96
5753;BME280;2901;42.140;24.760;2023-11-21T11:18:48;99104.13;;;16.69;47.79
5753;BME280;2901;42.140;24.760;2023-11-21T11:21:37;99100.81;;;16.64;47.53
5753;BME280;2901;42.140;24.760;2023-11-21T11:24:13;99088.31;;;16.48;48.17
5753;BME280;2901;42.140;24.760;2023-11-21T11:26:50;99078.97;;;16.41;48.62
5753;BME280;2901;42.140;24.760;2023-11-21T11:29:43;99073.97;;;16.35;49.34
5753;BME280;2901;42.140;24.760;2023-11-21T11:35:08;99041.41;;;16.44;49.66
5753;BME280;2901;42.140;24.760;2023-11-21T11:37:36;99033.66;;;16.42;49.68
5753;BME280;2901;42.140;24.760;2023-11-21T11:40:06;99024.09;;;16.41;49.65
5753;BME280;2901;42.140;24.760;2023-11-21T11:42:32;99008.56;;;16.37;50.17
5753;BME280;2901;42.140;24.760;2023-11-21T11:44:57;99001.66;;;16.36;50.79
5753;BME280;2901;42.140;24.760;2023-11-21T11:47:28;98999.22;;;16.31;50.72
5753;BME280;2901;42.140;24.760;2023-11-21T11:50:05;99007.63;;;16.16;50.60
5753;BME280;2901;42.140;24.760;2023-11-21T11:53:12;99003.53;;;16.09;51.37
5753;BME280;2901;42.140;24.760;2023-11-21T11:55:38;99013.06;;;15.87;51.33
5753;BME280;2901;42.140;24.760;2023-11-21T11:58:06;98996.31;;;15.68;51.98
5753;BME280;2901;42.140;24.760;2023-11-21T12:02:59;98981.75;;;15.62;52.96
5753;BME280;2901;42.140;24.760;2023-11-21T12:05:29;98977.63;;;15.55;53.62
5753;BME280;2901;42.140;24.760;2023-11-21T12:07:59;98975.78;;;15.58;53.49
5753;BME280;2901;42.140;24.760;2023-11-21T12:10:30;98987.03;;;15.61;52.48
5753;BME280;2901;42.140;24.760;2023-11-21T12:13:00;98981.31;;;15.49;53.00
5753;BME280;2901;42.140;24.760;2023-11-21T12:15:26;98984.31;;;15.37;53.67
5753;BME280;2901;42.140;24.760;2023-11-21T12:17:54;98993.19;;;15.32;54.00
5753;BME280;2901;42.140;24.760;2023-11-21T12:20:21;98989.94;;;15.25;54.63
5753;BME280;2901;42.140;24.760;2023-11-21T12:22:49;98984.13;;;15.17;54.78
5753;BME280;2901;42.140;24.760;2023-11-21T12:25:18;98971.31;;;15.11;55.22
5753;BME280;2901;42.140;24.760;2023-11-21T12:27:53;98973.81;;;15.14;55.53
5753;BME280;2901;42.140;24.760;2023-11-21T12:30:21;98997.97;;;15.19;55.56
5753;BME280;2901;42.140;24.760;2023-11-21T12:32:52;98999.69;;;15.20;55.28
5753;BME280;2901;42.140;24.760;2023-11-21T12:35:19;99008.38;;;15.21;54.92
5753;BME280;2901;42.140;24.760;2023-11-21T12:37:45;99008.69;;;15.36;54.76
5753;BME280;2901;42.140;24.760;2023-11-21T12:40:12;98990.03;;;15.48;54.03
5753;BME280;2901;42.140;24.760;2023-11-21T12:42:42;98974.47;;;15.45;54.24
5753;BME280;2901;42.140;24.760;2023-11-21T12:47:49;98981.28;;;15.51;54.67
5753;BME280;2901;42.140;24.760;2023-11-21T12:50:24;98986.41;;;15.54;54.36
5753;BME280;2901;42.140;24.760;2023-11-21T12:52:54;98986.63;;;15.46;55.20
5753;BME280;2901;42.140;24.760;2023-11-21T12:55:23;98977.63;;;15.55;55.17
5753;BME280;2901;42.140;24.760;2023-11-21T12:57:53;98970.44;;;15.62;54.70
5753;BME280;2901;42.140;24.760;2023-11-21T13:00:31;98960.81;;;15.64;54.96
5753;BME280;2901;42.140;24.760;2023-11-21T13:02:58;98955.75;;;15.59;54.85
5753;BME280;2901;42.140;24.760;2023-11-21T13:05:32;98964.91;;;15.71;54.62
5753;BME280;2901;42.140;24.760;2023-11-21T13:08:02;98956.50;;;15.63;54.85
5753;BME280;2901;42.140;24.760;2023-11-21T13:10:29;98959.31;;;15.56;55.08
5753;BME280;2901;42.140;24.760;2023-11-21T13:12:59;98966.31;;;15.56;54.39
5753;BME280;2901;42.140;24.760;2023-11-21T13:15:26;98959.22;;;15.60;54.65
5753;BME280;2901;42.140;24.760;2023-11-21T13:17:52;98954.38;;;15.74;54.22
5753;BME280;2901;42.140;24.760;2023-11-21T13:20:19;98962.19;;;15.74;53.61
5753;BME280;2901;42.140;24.760;2023-11-21T13:22:47;98960.03;;;15.85;53.19
5753;BME280;2901;42.140;24.760;2023-11-21T13:25:15;98966.06;;;15.87;53.77